createdAt,value
2023-04-09T00:00:11.745Z,11.60
2023-04-09T00:02:41.371Z,14.30
2023-04-09T00:05:08.384Z,14.10
2023-04-09T00:07:35.127Z,12.30
2023-04-09T00:10:01.816Z,11.50
2023-04-09T00:12:30.357Z,13.20
2023-04-09T00:14:57.618Z,13.30
2023-04-09T00:17:24.605Z,11.80
2023-04-09T00:19:51.481Z,12.80
2023-04-09T00:22:18.167Z,10.50
2023-04-09T00:24:44.912Z,13.70
2023-04-09T00:27:11.612Z,12.00
2023-04-09T00:29:38.396Z,14.60
2023-04-09T00:32:05.470Z,13.40
2023-04-09T00:34:32.329Z,13.80
2023-04-09T00:36:59.133Z,15.60
2023-04-09T00:39:26.899Z,14.70
2023-04-09T00:42:02.453Z,18.60
2023-04-09T00:44:30.479Z,17.50
2023-04-09T00:46:58.649Z,14.40
2023-04-09T00:49:26.474Z,13.30
2023-04-09T00:51:53.971Z,13.50
2023-04-09T00:54:20.774Z,13.30
2023-04-09T00:56:47.801Z,13.30
2023-04-09T00:59:14.905Z,17.70
2023-04-09T01:01:41.682Z,12.40
2023-04-09T01:04:08.629Z,11.90
2023-04-09T01:06:38.383Z,12.20
2023-04-09T01:09:05.037Z,14.70
2023-04-09T01:11:31.800Z,12.50
2023-04-09T01:14:05.915Z,14.90
2023-04-09T01:16:34.310Z,16.30
2023-04-09T01:19:15.565Z,16.50
2023-04-09T01:21:43.380Z,14.40
2023-04-09T01:24:11.031Z,11.80
2023-04-09T01:26:53.329Z,11.00
2023-04-09T01:29:23.042Z,14.30
2023-04-09T01:31:50.623Z,10.90
2023-04-09T01:34:19.560Z,14.80
2023-04-09T01:36:50.306Z,12.20
2023-04-09T01:39:17.430Z,12.30
2023-04-09T01:41:44.224Z,12.80
2023-04-09T01:44:11.679Z,13.30
2023-04-09T01:46:39.564Z,11.10
2023-04-09T01:49:06.818Z,11.90
2023-04-09T01:51:34.007Z,12.00
2023-04-09T01:54:00.962Z,10.30
2023-04-09T01:56:27.709Z,11.10
2023-04-09T01:58:54.866Z,12.10
2023-04-09T02:01:29.826Z,11.20
2023-04-09T02:04:04.280Z,10.50
2023-04-09T02:06:31.304Z,12.50
2023-04-09T02:09:00.322Z,11.30
2023-04-09T02:11:28.942Z,11.00
2023-04-09T02:13:56.834Z,10.70
2023-04-09T02:16:24.055Z,10.80
2023-04-09T02:18:54.991Z,10.50
2023-04-09T02:21:22.381Z,9.50
2023-04-09T02:23:49.251Z,9.50
2023-04-09T02:26:16.061Z,9.40
2023-04-09T02:28:42.788Z,9.10
2023-04-09T02:31:09.619Z,10.90
2023-04-09T02:33:36.642Z,7.90
2023-04-09T02:36:03.461Z,8.90
2023-04-09T02:38:30.522Z,7.50
2023-04-09T02:40:57.279Z,8.40
2023-04-09T02:43:23.992Z,10.10
2023-04-09T02:45:50.652Z,9.30
2023-04-09T02:48:17.431Z,10.20
2023-04-09T02:50:44.384Z,10.20
2023-04-09T02:53:11.241Z,7.40
2023-04-09T02:55:37.946Z,8.90
2023-04-09T02:58:04.691Z,9.80
2023-04-09T03:00:31.411Z,7.00
2023-04-09T03:02:58.358Z,7.70
2023-04-09T03:05:25.209Z,8.20
2023-04-09T03:07:51.969Z,8.70
2023-04-09T03:10:18.712Z,7.60
2023-04-09T03:12:45.513Z,9.30
2023-04-09T03:15:12.199Z,8.80
2023-04-09T03:17:39.260Z,8.10
2023-04-09T03:20:07.349Z,7.30
2023-04-09T03:22:38.445Z,6.90
2023-04-09T03:25:11.254Z,6.30
2023-04-09T03:27:38.052Z,9.30
2023-04-09T03:30:05.066Z,6.10
2023-04-09T03:32:39.106Z,7.80
2023-04-09T03:35:06.692Z,7.30
2023-04-09T03:37:33.680Z,7.00
2023-04-09T03:40:01.301Z,7.80
2023-04-09T03:42:28.961Z,7.20
2023-04-09T03:44:56.134Z,7.60
2023-04-09T03:47:29.689Z,11.00
2023-04-09T03:49:56.636Z,7.70
2023-04-09T03:52:26.386Z,9.20
2023-04-09T03:55:11.127Z,7.70
2023-04-09T03:57:38.018Z,9.40
2023-04-09T04:00:06.902Z,8.60
2023-04-09T04:02:50.756Z,8.40
2023-04-09T04:05:23.076Z,7.60
2023-04-09T04:07:49.879Z,8.70
2023-04-09T04:10:20.662Z,8.50
2023-04-09T04:12:47.696Z,7.00
2023-04-09T04:15:21.292Z,10.50
2023-04-09T04:17:52.371Z,10.30
2023-04-09T04:20:48.163Z,9.90
2023-04-09T04:23:14.922Z,8.90
2023-04-09T04:25:50.456Z,7.20
2023-04-09T04:28:22.169Z,6.90
2023-04-09T04:30:48.911Z,9.60
2023-04-09T04:33:15.673Z,6.80
2023-04-09T04:35:49.264Z,7.00
2023-04-09T04:38:35.602Z,8.90
2023-04-09T04:41:05.446Z,7.90
2023-04-09T04:43:34.341Z,8.40
2023-04-09T04:46:01.140Z,9.40
2023-04-09T04:48:29.354Z,8.00
2023-04-09T04:50:57.200Z,10.70
2023-04-09T04:53:24.517Z,10.20
2023-04-09T04:55:51.348Z,9.50
2023-04-09T04:58:21.947Z,10.00
2023-04-09T05:00:52.600Z,9.10
2023-04-09T05:03:19.458Z,11.70
2023-04-09T05:06:06.551Z,8.50
2023-04-09T05:08:39.901Z,11.60
2023-04-09T05:11:06.627Z,11.90
2023-04-09T05:13:35.687Z,13.30
2023-04-09T05:16:05.872Z,10.00
2023-04-09T05:18:32.758Z,9.60
2023-04-09T05:20:59.532Z,9.80
2023-04-09T05:23:27.895Z,8.20
2023-04-09T05:25:54.672Z,10.10
2023-04-09T05:28:26.467Z,11.50
2023-04-09T05:31:02.718Z,13.60
2023-04-09T05:33:35.418Z,8.30
2023-04-09T05:36:02.142Z,9.60
2023-04-09T05:38:28.886Z,10.20
2023-04-09T05:40:56.842Z,10.60
2023-04-09T05:43:24.183Z,13.40
2023-04-09T05:45:51.178Z,12.00
2023-04-09T05:48:18.593Z,12.70
2023-04-09T05:50:54.534Z,11.20
2023-04-09T05:53:23.965Z,11.90
2023-04-09T05:55:50.760Z,10.20
2023-04-09T05:58:19.825Z,14.80
2023-04-09T06:00:46.933Z,12.10
2023-04-09T06:03:13.697Z,13.50
2023-04-09T06:05:40.528Z,10.70
2023-04-09T06:08:07.477Z,14.00
2023-04-09T06:10:34.355Z,12.50
2023-04-09T06:13:01.544Z,13.40
2023-04-09T06:15:28.384Z,13.60
2023-04-09T06:17:57.458Z,14.90
2023-04-09T06:20:25.646Z,13.50
2023-04-09T06:22:52.417Z,13.00
2023-04-09T06:25:19.106Z,15.60
2023-04-09T06:27:46.148Z,14.20
2023-04-09T06:30:13.016Z,12.80
2023-04-09T06:32:47.266Z,9.80
2023-04-09T06:35:20.967Z,10.50
2023-04-09T06:37:47.664Z,11.80
2023-04-09T06:40:14.613Z,10.60
2023-04-09T06:42:41.547Z,9.40
2023-04-09T06:45:17.858Z,10.80
2023-04-09T06:47:44.682Z,9.20
2023-04-09T06:50:11.563Z,11.20
2023-04-09T06:52:38.360Z,10.90
2023-04-09T06:55:05.583Z,10.90
2023-04-09T06:57:32.387Z,12.00
2023-04-09T06:59:59.452Z,11.60
2023-04-09T07:02:26.553Z,9.80
2023-04-09T07:04:55.416Z,10.30
2023-04-09T07:07:24.278Z,10.00
2023-04-09T07:09:53.106Z,8.90
2023-04-09T07:12:26.577Z,10.50
2023-04-09T07:14:53.358Z,11.00
2023-04-09T07:17:20.020Z,8.80
2023-04-09T07:19:46.779Z,10.70
2023-04-09T07:22:13.559Z,10.40
2023-04-09T07:24:40.644Z,10.30
2023-04-09T07:27:07.353Z,11.30
2023-04-09T07:29:34.151Z,12.20
2023-04-09T07:32:02.731Z,10.90
2023-04-09T07:34:29.570Z,12.80
2023-04-09T07:36:56.285Z,9.40
2023-04-09T07:39:23.771Z,11.00
2023-04-09T07:41:50.731Z,9.60
2023-04-09T07:44:17.494Z,11.30
2023-04-09T07:46:44.289Z,10.80
2023-04-09T07:49:11.042Z,8.80
2023-04-09T07:51:37.844Z,7.30
2023-04-09T07:54:04.651Z,10.10
2023-04-09T07:56:31.342Z,9.00
2023-04-09T07:58:58.156Z,10.20
2023-04-09T08:01:26.206Z,9.70
2023-04-09T08:03:53.130Z,9.30
2023-04-09T08:06:20.057Z,9.50
2023-04-09T08:08:46.769Z,8.40
2023-04-09T08:11:13.463Z,8.80
2023-04-09T08:13:40.692Z,8.30
2023-04-09T08:16:07.448Z,9.30
2023-04-09T08:18:34.220Z,8.90
2023-04-09T08:21:04.688Z,10.40
2023-04-09T08:23:31.410Z,11.00
2023-04-09T08:25:58.196Z,9.80
2023-04-09T08:28:25.403Z,9.00
2023-04-09T08:30:52.192Z,9.60
2023-04-09T08:33:18.949Z,7.30
2023-04-09T08:35:45.647Z,7.60
2023-04-09T08:38:12.317Z,9.70
2023-04-09T08:40:39.130Z,8.20
2023-04-09T08:43:07.168Z,7.20
2023-04-09T08:45:34.114Z,8.50
2023-04-09T08:48:03.661Z,8.20
2023-04-09T08:50:31.637Z,7.30
2023-04-09T08:52:58.495Z,7.60
2023-04-09T08:55:25.223Z,8.70
2023-04-09T08:57:52.058Z,7.80
2023-04-09T09:00:18.825Z,8.20
2023-04-09T09:03:01.390Z,8.00
2023-04-09T09:05:38.467Z,8.40
2023-04-09T09:08:07.253Z,7.40
2023-04-09T09:10:41.512Z,9.80
2023-04-09T09:13:22.680Z,8.60
2023-04-09T09:15:55.223Z,8.50
2023-04-09T09:18:37.240Z,8.60
2023-04-09T09:21:10.725Z,9.00
2023-04-09T09:23:37.489Z,8.50
2023-04-09T09:26:14.334Z,8.10
2023-04-09T09:28:41.447Z,10.90
2023-04-09T09:31:12.082Z,10.70
2023-04-09T09:33:39.193Z,7.90
2023-04-09T09:36:06.575Z,8.90
2023-04-09T09:38:33.668Z,8.90
2023-04-09T09:41:16.159Z,9.30
2023-04-09T09:43:42.890Z,7.90
2023-04-09T09:46:11.254Z,10.60
2023-04-09T09:48:38.361Z,8.50
2023-04-09T09:51:11.929Z,7.50
2023-04-09T09:53:39.354Z,10.00
2023-04-09T09:56:06.970Z,9.00
2023-04-09T09:58:41.204Z,8.20
2023-04-09T10:01:10.836Z,8.80
2023-04-09T10:03:38.420Z,9.10
2023-04-09T10:06:05.800Z,8.60
2023-04-09T10:08:34.192Z,8.50
2023-04-09T10:11:01.494Z,7.20
2023-04-09T10:13:35.759Z,8.70
2023-04-09T10:16:02.964Z,6.70
2023-04-09T10:18:33.522Z,7.60
2023-04-09T10:21:17.384Z,7.10
2023-04-09T10:23:44.902Z,7.60
2023-04-09T10:26:11.598Z,5.70
2023-04-09T10:28:38.440Z,7.00
2023-04-09T10:31:08.951Z,7.60
2023-04-09T10:33:39.345Z,5.80
2023-04-09T10:36:09.915Z,7.50
2023-04-09T10:38:41.235Z,6.70
2023-04-09T10:41:09.695Z,5.80
2023-04-09T10:43:37.508Z,7.10
2023-04-09T10:46:08.409Z,5.40
2023-04-09T10:48:35.317Z,6.50
2023-04-09T10:51:06.560Z,6.40
2023-04-09T10:53:33.820Z,6.20
2023-04-09T10:56:01.375Z,5.90
2023-04-09T10:58:28.239Z,6.10
2023-04-09T11:00:55.817Z,6.50
2023-04-09T11:03:24.100Z,6.40
2023-04-09T11:05:54.321Z,5.30
2023-04-09T11:08:22.349Z,6.80
2023-04-09T11:10:52.055Z,5.60
2023-04-09T11:13:20.790Z,6.10
2023-04-09T11:15:47.682Z,5.90
2023-04-09T11:18:21.859Z,5.50
2023-04-09T11:20:48.797Z,5.50
2023-04-09T11:23:16.186Z,5.90
2023-04-09T11:25:43.020Z,5.00
2023-04-09T11:28:09.827Z,5.20
2023-04-09T11:30:37.516Z,5.90
2023-04-09T11:33:05.743Z,5.40
2023-04-09T11:35:34.082Z,4.90
2023-04-09T11:38:01.088Z,5.10
2023-04-09T11:40:29.303Z,6.00
2023-04-09T11:42:56.948Z,6.20
2023-04-09T11:45:25.451Z,5.00
2023-04-09T11:47:52.258Z,5.00
2023-04-09T11:50:19.478Z,4.70
2023-04-09T11:52:46.512Z,4.50
2023-04-09T11:55:22.703Z,4.70
2023-04-09T11:57:51.248Z,4.80
2023-04-09T12:00:18.125Z,4.00
2023-04-09T12:02:46.597Z,4.20
2023-04-09T12:05:20.838Z,4.40
2023-04-09T12:07:55.594Z,3.80
2023-04-09T12:10:26.424Z,4.40
2023-04-09T12:12:53.119Z,4.70
2023-04-09T12:15:24.559Z,5.10
2023-04-09T12:17:52.030Z,4.70
2023-04-09T12:20:35.163Z,5.90
2023-04-09T12:23:03.577Z,4.90
2023-04-09T12:25:35.378Z,5.00
2023-04-09T12:28:02.227Z,4.70
2023-04-09T12:30:29.347Z,4.60
2023-04-09T12:32:56.287Z,5.20
2023-04-09T12:35:23.135Z,3.60
2023-04-09T12:37:50.495Z,3.70
2023-04-09T12:40:17.609Z,4.50
2023-04-09T12:42:45.490Z,4.20
2023-04-09T12:45:13.785Z,3.90
2023-04-09T12:47:41.421Z,5.00
2023-04-09T12:50:08.932Z,4.50
2023-04-09T12:52:35.891Z,5.00
2023-04-09T12:55:03.256Z,3.80
2023-04-09T12:57:30.105Z,3.70
2023-04-09T12:59:57.028Z,6.70
2023-04-09T13:02:24.287Z,7.70
2023-04-09T13:04:51.438Z,6.40
2023-04-09T13:07:19.123Z,8.70
2023-04-09T13:09:46.215Z,7.10
2023-04-09T13:12:13.049Z,6.20
2023-04-09T13:14:40.217Z,6.40
2023-04-09T13:17:06.990Z,6.30
2023-04-09T13:19:33.719Z,7.60
2023-04-09T13:22:00.554Z,7.00
2023-04-09T13:24:27.496Z,6.70
2023-04-09T13:26:54.401Z,6.90
2023-04-09T13:29:21.440Z,6.00
2023-04-09T13:31:48.962Z,6.90
2023-04-09T13:34:15.698Z,7.40
2023-04-09T13:36:42.464Z,5.80
2023-04-09T13:39:09.245Z,6.40
2023-04-09T13:41:36.004Z,7.10
2023-04-09T13:44:02.702Z,6.10
2023-04-09T13:46:29.622Z,6.90
2023-04-09T13:48:56.427Z,7.50
2023-04-09T13:51:23.508Z,5.90
2023-04-09T13:53:50.872Z,5.50
2023-04-09T13:56:18.565Z,6.60
2023-04-09T13:58:45.551Z,4.90
2023-04-09T14:01:12.401Z,5.70
2023-04-09T14:03:40.298Z,7.10
2023-04-09T14:06:08.640Z,6.60
2023-04-09T14:08:36.238Z,7.10
2023-04-09T14:11:03.074Z,6.00
2023-04-09T14:13:29.845Z,4.90
2023-04-09T14:15:58.591Z,5.40
2023-04-09T14:18:26.697Z,5.70
2023-04-09T14:20:53.411Z,7.10
2023-04-09T14:23:20.324Z,5.10
2023-04-09T14:25:47.145Z,5.40
2023-04-09T14:28:13.952Z,5.90
2023-04-09T14:30:40.729Z,6.90
2023-04-09T14:33:07.566Z,5.00
2023-04-09T14:35:34.443Z,5.60
2023-04-09T14:38:04.410Z,4.80
2023-04-09T14:40:32.004Z,5.80
2023-04-09T14:43:03.738Z,6.20
2023-04-09T14:45:30.996Z,6.10
2023-04-09T14:47:57.933Z,6.10
2023-04-09T14:50:24.737Z,5.10
2023-04-09T14:52:51.477Z,6.00
2023-04-09T14:55:18.715Z,6.30
2023-04-09T14:57:45.642Z,5.40
2023-04-09T15:00:12.641Z,4.90
2023-04-09T15:02:39.589Z,5.30
2023-04-09T15:05:06.744Z,6.30
2023-04-09T15:07:33.797Z,4.30
2023-04-09T15:10:00.684Z,6.70
2023-04-09T15:12:27.946Z,5.30
2023-04-09T15:14:57.682Z,4.30
2023-04-09T15:17:24.685Z,5.00
2023-04-09T15:19:52.101Z,4.80
2023-04-09T15:22:19.053Z,4.10
2023-04-09T15:24:45.754Z,4.90
2023-04-09T15:27:12.486Z,5.00
2023-04-09T15:29:39.368Z,6.00
2023-04-09T15:32:06.154Z,4.90
2023-04-09T15:34:32.940Z,5.10
2023-04-09T15:36:59.619Z,5.10
2023-04-09T15:39:28.507Z,4.60
2023-04-09T15:41:58.836Z,5.60
2023-04-09T15:44:25.967Z,4.10
2023-04-09T15:46:52.685Z,5.30
2023-04-09T15:49:19.811Z,4.50
2023-04-09T15:51:46.762Z,4.20
2023-04-09T15:54:14.471Z,4.10
2023-04-09T15:56:41.208Z,4.80
2023-04-09T15:59:08.489Z,3.50
2023-04-09T16:01:36.383Z,4.10
2023-04-09T16:04:03.901Z,3.50
2023-04-09T16:06:30.700Z,4.30
2023-04-09T16:08:57.497Z,3.80
2023-04-09T16:11:24.268Z,3.70
2023-04-09T16:13:51.052Z,3.80
2023-04-09T16:16:17.964Z,4.50
2023-04-09T16:18:44.772Z,4.00
2023-04-09T16:21:11.520Z,3.70
2023-04-09T16:23:38.610Z,3.70
2023-04-09T16:26:05.872Z,3.90
2023-04-09T16:28:32.579Z,3.80
2023-04-09T16:30:59.656Z,3.90
2023-04-09T16:33:26.390Z,3.80
2023-04-09T16:35:53.197Z,4.50
2023-04-09T16:38:19.964Z,4.30
2023-04-09T16:40:46.821Z,8.40
2023-04-09T16:43:13.578Z,4.70
2023-04-09T16:45:40.312Z,5.20
2023-04-09T16:48:12.202Z,4.20
2023-04-09T16:50:40.018Z,6.60
2023-04-09T16:53:07.054Z,4.70
2023-04-09T16:55:34.058Z,4.30
2023-04-09T16:58:01.125Z,5.20
2023-04-09T17:00:27.828Z,3.60
2023-04-09T17:02:56.544Z,3.70
2023-04-09T17:05:23.784Z,3.40
2023-04-09T17:07:50.618Z,4.80
2023-04-09T17:10:19.053Z,4.30
2023-04-09T17:12:46.144Z,4.00
2023-04-09T17:15:12.868Z,5.10
2023-04-09T17:17:39.830Z,4.90
2023-04-09T17:20:07.060Z,4.50
2023-04-09T17:22:35.201Z,4.60
2023-04-09T17:25:02.617Z,4.90
2023-04-09T17:27:29.514Z,6.00
2023-04-09T17:29:56.439Z,5.30
2023-04-09T17:32:23.304Z,6.50
2023-04-09T17:34:50.080Z,6.00
2023-04-09T17:37:16.967Z,6.20
2023-04-09T17:39:43.703Z,5.60
2023-04-09T17:42:11.908Z,6.50
2023-04-09T17:44:38.987Z,6.50
2023-04-09T17:47:07.538Z,6.60
2023-04-09T17:49:34.687Z,6.90
2023-04-09T17:52:01.654Z,7.40
2023-04-09T17:54:34.874Z,7.10
2023-04-09T17:57:02.477Z,8.30
2023-04-09T17:59:29.236Z,9.50
2023-04-09T18:01:56.904Z,8.50
2023-04-09T18:04:24.587Z,9.50
2023-04-09T18:06:51.733Z,6.70
2023-04-09T18:09:18.600Z,7.10
2023-04-09T18:11:45.874Z,7.40
2023-04-09T18:14:12.657Z,8.00
2023-04-09T18:16:39.555Z,6.80
2023-04-09T18:19:06.726Z,6.60
2023-04-09T18:21:36.554Z,7.40
2023-04-09T18:24:03.766Z,7.00
2023-04-09T18:26:30.919Z,9.80
2023-04-09T18:29:00.591Z,6.70
2023-04-09T18:31:28.030Z,7.60
2023-04-09T18:33:54.921Z,7.60
2023-04-09T18:36:21.728Z,5.50
2023-04-09T18:38:48.950Z,8.20
2023-04-09T18:41:25.658Z,6.60
2023-04-09T18:43:52.839Z,7.10
2023-04-09T18:46:19.601Z,9.00
2023-04-09T18:48:49.187Z,7.30
2023-04-09T18:51:16.562Z,10.80
2023-04-09T18:53:44.378Z,11.80
2023-04-09T18:56:11.614Z,14.90
2023-04-09T18:58:38.948Z,15.00
2023-04-09T19:01:09.313Z,14.10
2023-04-09T19:03:36.194Z,15.70
2023-04-09T19:06:09.763Z,15.50
2023-04-09T19:08:38.420Z,10.50
2023-04-09T19:11:06.314Z,12.70
2023-04-09T19:13:33.329Z,11.40
2023-04-09T19:16:00.162Z,10.80
2023-04-09T19:18:26.965Z,11.00
2023-04-09T19:20:53.723Z,7.50
2023-04-09T19:23:20.445Z,8.90
2023-04-09T19:25:55.307Z,9.10
2023-04-09T19:28:22.456Z,10.50
2023-04-09T19:30:52.350Z,11.30
2023-04-09T19:33:26.471Z,11.90
2023-04-09T19:35:54.479Z,13.90
2023-04-09T19:38:21.459Z,12.70
2023-04-09T19:40:48.247Z,12.50
2023-04-09T19:43:15.109Z,13.40
2023-04-09T19:45:42.733Z,13.10
2023-04-09T19:48:09.693Z,12.80
2023-04-09T19:50:41.192Z,14.60
2023-04-09T19:53:07.929Z,19.10
2023-04-09T19:55:34.943Z,13.50
2023-04-09T19:58:02.073Z,13.80
2023-04-09T20:00:28.829Z,12.10
2023-04-09T20:02:56.107Z,12.40
2023-04-09T20:05:22.989Z,12.60
2023-04-09T20:07:50.397Z,16.00
2023-04-09T20:10:17.269Z,13.00
2023-04-09T20:12:46.929Z,12.00
2023-04-09T20:15:13.674Z,11.00
2023-04-09T20:17:41.945Z,10.80
2023-04-09T20:20:08.932Z,10.20
2023-04-09T20:22:35.601Z,11.40
2023-04-09T20:25:02.426Z,10.90
2023-04-09T20:27:29.194Z,11.10
2023-04-09T20:29:56.429Z,13.60
2023-04-09T20:32:23.209Z,12.90
2023-04-09T20:34:49.982Z,13.60
2023-04-09T20:37:16.703Z,15.30
2023-04-09T20:39:43.616Z,12.30
2023-04-09T20:42:10.446Z,12.10
2023-04-09T20:44:38.297Z,13.00
2023-04-09T20:47:07.102Z,12.00
2023-04-09T20:49:33.878Z,12.60
2023-04-09T20:52:00.772Z,8.70
2023-04-09T20:54:27.899Z,9.60
2023-04-09T20:56:55.078Z,10.20
2023-04-09T20:59:21.802Z,8.10
2023-04-09T21:01:48.900Z,9.70
2023-04-09T21:04:15.963Z,9.20
2023-04-09T21:06:43.092Z,11.70
2023-04-09T21:09:09.788Z,8.30
2023-04-09T21:11:36.515Z,10.10
2023-04-09T21:14:04.102Z,10.70
2023-04-09T21:16:31.260Z,8.80
2023-04-09T21:18:58.495Z,9.60
2023-04-09T21:21:27.585Z,11.00
2023-04-09T21:23:54.457Z,8.10
2023-04-09T21:26:21.230Z,8.50
2023-04-09T21:28:50.649Z,7.50
2023-04-09T21:31:18.451Z,9.00
2023-04-09T21:33:45.428Z,8.70
2023-04-09T21:36:12.220Z,11.50
2023-04-09T21:38:38.978Z,8.20
2023-04-09T21:41:05.713Z,9.40
2023-04-09T21:43:32.378Z,9.30
2023-04-09T21:45:59.421Z,8.70
2023-04-09T21:48:30.697Z,9.40
2023-04-09T21:50:58.261Z,10.20
2023-04-09T21:53:25.022Z,11.10
2023-04-09T21:55:51.778Z,9.90
2023-04-09T21:58:18.437Z,10.90
2023-04-09T22:00:45.328Z,10.30
2023-04-09T22:03:12.732Z,8.30
2023-04-09T22:05:39.644Z,9.50
2023-04-09T22:08:07.348Z,8.00
2023-04-09T22:10:34.128Z,8.10
2023-04-09T22:13:01.331Z,7.70
2023-04-09T22:15:28.242Z,9.20
2023-04-09T22:17:54.960Z,7.70
2023-04-09T22:20:21.745Z,7.90
2023-04-09T22:22:48.490Z,9.00
2023-04-09T22:25:15.786Z,9.30
2023-04-09T22:27:43.477Z,8.80
2023-04-09T22:30:10.394Z,9.80
2023-04-09T22:32:37.098Z,8.10
2023-04-09T22:35:03.916Z,7.70
2023-04-09T22:37:30.825Z,8.60
2023-04-09T22:39:57.545Z,7.40
2023-04-09T22:42:25.431Z,9.00
2023-04-09T22:44:53.884Z,8.10
2023-04-09T22:47:20.628Z,7.90
2023-04-09T22:49:47.602Z,7.50
2023-04-09T22:52:14.298Z,8.10
2023-04-09T22:54:43.235Z,7.10
2023-04-09T22:57:09.992Z,9.10
2023-04-09T22:59:40.437Z,6.90
2023-04-09T23:02:07.742Z,8.20
2023-04-09T23:04:35.032Z,8.60
2023-04-09T23:07:02.580Z,9.30
2023-04-09T23:09:31.013Z,9.20
2023-04-09T23:11:57.973Z,7.40
2023-04-09T23:14:24.720Z,9.00
2023-04-09T23:16:51.443Z,8.20
2023-04-09T23:19:18.172Z,8.00
2023-04-09T23:21:44.907Z,8.40
2023-04-09T23:24:11.629Z,9.00
2023-04-09T23:26:38.524Z,7.50
2023-04-09T23:29:05.366Z,7.20
2023-04-09T23:31:32.246Z,7.30
2023-04-09T23:33:59.059Z,9.70
2023-04-09T23:36:26.233Z,8.50
2023-04-09T23:38:52.902Z,6.80
2023-04-09T23:41:19.596Z,7.70
2023-04-09T23:43:46.878Z,9.10
2023-04-09T23:46:13.623Z,9.90
2023-04-09T23:48:40.454Z,8.20
2023-04-09T23:51:07.258Z,8.80
2023-04-09T23:53:33.937Z,10.30
2023-04-09T23:56:00.741Z,8.70
2023-04-09T23:58:27.482Z,8.80
